• Join FlightAware (Why Join?)
  • Login
  • US Flag 
Rudolph Flight #1: Arrived! 
07:24PM EST


 

Airport Tracker/Info


-or-


 

Live Flight TrackerFlight Track Log ✈ EJA831 ✈ 26-Apr-2014 ✈ KCRQ - KICT

Flight Track Log - Related Links

Times and Time Zones

All times are in EDT time to prevent confusion due to time zone crossing. See the EJA831 flight status page for this flight to view local times or setup timezone preferences in your user account.

Time Position Orientation Groundspeed Altitude Reporting Facility
EDT Latitude Longitude Course Direction KTS MPH feet Rate Location/Type
10:48PM 36.4412 -104.6441 69° East  Level Estimated
10:49PM 36.4636 -104.5324 76° East  Level Estimated
10:50PM 36.4858 -104.4207 76° East  Level Estimated
10:51PM 36.5080 -104.3089 76° East  Level Estimated
10:52PM 36.5301 -104.1970 76° East  Level Estimated
10:53PM 36.5520 -104.0851 76° East  Level Estimated
10:54PM 36.5739 -103.9731 76° East  Level Estimated
10:55PM 36.5956 -103.8610 76° East  Level Estimated
10:56PM 36.6173 -103.7489 76° East  Level Estimated
10:57PM 36.6388 -103.6367 77° East  Level Estimated
10:58PM 36.6602 -103.5244 77° East  Level Estimated
10:59PM 36.6816 -103.4121 77° East  Level Estimated
11:00PM 36.7028 -103.2997 77° East  Level Estimated
11:01PM 36.7239 -103.1873 77° East  Level Estimated
11:02PM 36.7449 -103.0748 77° East  Level Estimated
11:03PM 36.7658 -102.9622 77° East  Level Estimated
11:04PM 36.7866 -102.8496 77° East  Level Estimated
11:05PM 36.8073 -102.7369 77° East  Level Estimated
11:06PM 36.8279 -102.6242 77° East  Level Estimated
11:07PM 36.8484 -102.5114 77° East  Level Estimated
11:08PM 36.8687 -102.3985 77° East  Level Estimated
11:09PM 36.8890 -102.2856 77° East  Level Estimated
11:10PM 36.9092 -102.1726 77° East  Level Estimated
11:11PM 36.9292 -102.0595 77° East  Level Estimated
11:12PM 36.9492 -101.9464 78° East  Level Estimated
11:13PM 36.9690 -101.8333 78° East  Level Estimated
11:14PM 36.9887 -101.7200 78° East  Level Estimated
11:15PM 37.0084 -101.6068 78° East  Level Estimated
11:16PM 37.0279 -101.4934 78° East  Level Estimated
11:17PM 37.0473 -101.3800 78° East  Level Estimated
11:18PM 37.0666 -101.2665 78° East  Level Estimated
11:19PM 37.0858 -101.1530 78° East  Level Estimated
11:20PM 37.1048 -101.0395 78° East  Level Estimated
11:21PM 37.1238 -100.9258 78° East  Level Estimated
11:22PM 37.1427 -100.8121 78° East  Level Estimated
11:23PM 37.1614 -100.6984 78° East  Level Estimated
11:24PM 37.1801 -100.5846 78° East  Level Estimated
11:25PM 37.1986 -100.4707 78° East  Level Estimated
11:26PM 37.2170 -100.3568 78° East  Level Estimated
11:27PM 37.2354 -100.2429 79° East  Level Estimated
11:28PM 37.2536 -100.1289 79° East  Level Estimated
11:29PM 37.2717 -100.0148 79° East  Level Estimated
11:30PM 37.2897 -99.9006 79° East  Level Estimated
11:31PM 37.3076 -99.7865 79° East  Level Estimated
11:32PM 37.3253 -99.6722 79° East  Level Estimated
11:33PM 37.3430 -99.5579 79° East  Level Estimated
11:34PM 37.3605 -99.4436 79° East  Level Estimated
11:35PM 37.3780 -99.3292 79° East  Level Estimated
11:36PM 37.3953 -99.2147 79° East  Level Estimated
11:37PM 37.4126 -99.1002 79° East  Level Estimated
11:38PM 37.4297 -98.9856 79° East  Level Estimated
11:39PM 37.4467 -98.8710 79° East  Level Estimated
11:40PM 37.4636 -98.7564 79° East  Level Estimated
11:41PM 37.4803 -98.6417 80° East  Level Estimated
11:42PM 37.4970 -98.5269 80° East  Level Estimated
11:43PM 37.5136 -98.4121 80° East  Level Estimated
11:44PM 37.5300 -98.2972 80° East  Level Estimated
11:45PM 37.5463 -98.1823 80° East  Level Estimated
11:46PM 37.5626 -98.0673 80° East  Level Estimated
11:47PM 37.5787 -97.9523 80° East  Level Estimated
11:48PM 37.5947 -97.8372 80° East  Level Estimated
11:49PM 37.6106 -97.7221 80° East  Level Estimated
11:50PM 37.6264 -97.6069 80° East  Level Estimated
11:51PM 37.6420 -97.4917 80° East  Level Estimated
11:52PM 37.6499 -97.4331 80° East  Level Estimated
11:53PM 37.6499 -97.4331 North  Level Estimated
11:54PM 37.6499 -97.4331 North  Level Estimated
11:55PM 37.6499 -97.4331 North  Level Estimated
11:56PM 37.6499 -97.4331 North  Level Estimated
11:57PM 37.6499 -97.4331 North  Level Estimated
11:58PM 37.6499 -97.4331 North  Level Estimated
11:59PM 37.6499 -97.4331 North  Level Estimated
12:00AM 37.6499 -97.4331 North  Level Estimated
12:01AM 37.6499 -97.4331 North  Level Estimated
12:02AM 37.6499 -97.4331 North  Level Estimated
12:03AM 37.6499 -97.4331 North  Level Estimated
12:04AM 37.6499 -97.4331 North  Level Estimated
12:05AM 37.6499 -97.4331 North  Level Estimated
12:06AM 37.6499 -97.4331 North  Level Estimated
12:07AM 37.6499 -97.4331 North  Level Estimated